createdAt,value
2022-10-13T00:00:17.606Z,36.27
2022-10-13T00:02:45.473Z,36.07
2022-10-13T00:05:13.343Z,36.24
2022-10-13T00:07:41.242Z,36.12
2022-10-13T00:10:09.930Z,36.26
2022-10-13T00:12:38.024Z,36.14
2022-10-13T00:15:08.453Z,36.11
2022-10-13T00:17:37.706Z,36.15
2022-10-13T00:20:06.394Z,36.23
2022-10-13T00:22:34.298Z,36.15
2022-10-13T00:25:02.159Z,36.03
2022-10-13T00:27:30.023Z,36.25
2022-10-13T00:29:58.238Z,36.14
2022-10-13T00:32:26.079Z,36.16
2022-10-13T00:34:55.372Z,36.17
2022-10-13T00:37:23.267Z,36.44
2022-10-13T00:39:51.405Z,36.10
2022-10-13T00:42:19.552Z,36.05
2022-10-13T00:45:05.255Z,35.93
2022-10-13T00:47:36.588Z,36.07
2022-10-13T00:50:07.091Z,36.30
2022-10-13T00:52:34.939Z,35.78
2022-10-13T00:55:02.977Z,36.08
2022-10-13T00:57:30.927Z,36.08
2022-10-13T00:59:59.166Z,36.44
2022-10-13T01:02:28.342Z,36.02
2022-10-13T01:04:56.907Z,35.99
2022-10-13T01:07:26.140Z,36.44
2022-10-13T01:09:54.306Z,35.76
2022-10-13T01:12:28.594Z,36.18
2022-10-13T01:14:58.520Z,35.93
2022-10-13T01:17:30.113Z,36.12
2022-10-13T01:22:41.484Z,36.02
2022-10-13T01:25:13.676Z,36.02
2022-10-13T01:28:08.348Z,36.09
2022-10-13T01:30:38.315Z,36.06
2022-10-13T01:33:11.248Z,36.31
2022-10-13T01:35:57.931Z,36.10
2022-10-13T01:38:28.215Z,36.11
2022-10-13T01:41:01.496Z,36.26
2022-10-13T01:43:30.024Z,36.02
2022-10-13T01:46:01.684Z,36.29
2022-10-13T01:48:29.954Z,36.24
2022-10-13T01:50:58.043Z,36.37
2022-10-13T01:53:25.939Z,36.33
2022-10-13T01:55:54.590Z,36.11
2022-10-13T01:58:22.825Z,36.33
2022-10-13T02:00:58.046Z,36.08
2022-10-13T02:03:32.570Z,36.23
2022-10-13T02:06:03.775Z,36.08
2022-10-13T02:08:33.711Z,36.19
2022-10-13T02:11:05.878Z,36.02
2022-10-13T02:13:33.835Z,36.07
2022-10-13T02:16:01.927Z,36.21
2022-10-13T02:18:33.101Z,36.21
2022-10-13T02:21:01.022Z,36.15
2022-10-13T02:23:29.100Z,36.05
2022-10-13T02:25:57.031Z,36.14
2022-10-13T02:28:25.186Z,36.01
2022-10-13T02:30:53.084Z,36.32
2022-10-13T02:33:20.958Z,36.21
2022-10-13T02:35:50.241Z,36.17
2022-10-13T02:38:18.185Z,36.16
2022-10-13T02:40:46.134Z,36.26
2022-10-13T02:43:13.997Z,36.22
2022-10-13T02:45:42.167Z,36.22
2022-10-13T02:48:10.070Z,36.18
2022-10-13T02:50:37.971Z,36.03
2022-10-13T02:53:07.207Z,36.39
2022-10-13T02:55:35.338Z,36.21
2022-10-13T02:58:03.210Z,36.17
2022-10-13T03:00:31.581Z,36.51
2022-10-13T03:02:59.722Z,36.33
2022-10-13T03:05:27.928Z,36.23
2022-10-13T03:07:55.821Z,36.36
2022-10-13T03:10:25.147Z,35.96
2022-10-13T03:12:52.994Z,36.23
2022-10-13T03:15:21.173Z,36.31
2022-10-13T03:17:49.037Z,36.30
2022-10-13T03:20:16.986Z,36.22
2022-10-13T03:22:49.442Z,36.47
2022-10-13T03:25:18.186Z,36.53
2022-10-13T03:27:47.529Z,36.12
2022-10-13T03:30:15.382Z,36.43
2022-10-13T03:32:43.522Z,36.20
2022-10-13T03:35:11.686Z,36.27
2022-10-13T03:37:39.626Z,36.32
2022-10-13T03:40:08.944Z,36.31
2022-10-13T03:42:36.911Z,36.25
2022-10-13T03:45:10.778Z,36.39
2022-10-13T03:47:38.657Z,36.11
2022-10-13T03:50:07.223Z,36.21
2022-10-13T03:52:35.099Z,36.48
2022-10-13T03:55:03.389Z,36.06
2022-10-13T03:57:31.222Z,36.23
2022-10-13T03:59:59.288Z,36.27
2022-10-13T04:02:28.561Z,36.27
2022-10-13T04:04:56.685Z,36.25
2022-10-13T04:07:24.851Z,36.57
2022-10-13T04:09:52.725Z,36.28
2022-10-13T04:12:21.285Z,36.40
2022-10-13T04:14:49.353Z,36.30
2022-10-13T04:17:17.463Z,36.30
2022-10-13T04:19:46.842Z,36.31
2022-10-13T04:22:14.729Z,36.10
2022-10-13T04:24:42.665Z,36.23
2022-10-13T04:27:11.192Z,35.99
2022-10-13T04:29:39.076Z,36.16
2022-10-13T04:32:06.924Z,36.23
2022-10-13T04:34:34.952Z,36.38
2022-10-13T04:37:04.561Z,36.28
2022-10-13T04:39:32.726Z,36.40
2022-10-13T04:42:00.592Z,36.30
2022-10-13T04:44:28.481Z,36.35
2022-10-13T04:46:56.670Z,36.32
2022-10-13T04:49:25.261Z,36.08
2022-10-13T04:51:53.319Z,36.79
2022-10-13T04:54:22.617Z,36.49
2022-10-13T04:56:50.751Z,36.50
2022-10-13T04:59:18.668Z,36.37
2022-10-13T05:01:46.502Z,36.24
2022-10-13T05:04:14.377Z,36.46
2022-10-13T05:07:05.201Z,36.28
2022-10-13T05:09:32.327Z,36.46
2022-10-13T05:12:00.199Z,36.17
2022-10-13T05:14:28.061Z,36.16
2022-10-13T05:16:58.089Z,36.39
2022-10-13T05:19:25.959Z,36.48
2022-10-13T05:21:53.809Z,36.68
2022-10-13T05:24:31.271Z,36.34
2022-10-13T05:27:00.592Z,36.46
2022-10-13T05:29:28.662Z,36.57
2022-10-13T05:31:56.533Z,36.68
2022-10-13T05:34:24.454Z,36.36
2022-10-13T05:36:52.568Z,36.22
2022-10-13T05:39:20.459Z,36.56
2022-10-13T05:41:48.330Z,36.54
2022-10-13T05:44:17.730Z,36.39
2022-10-13T05:46:45.964Z,36.28
2022-10-13T05:49:13.828Z,36.45
2022-10-13T05:51:43.634Z,36.67
2022-10-13T05:54:15.071Z,36.35
2022-10-13T05:56:44.682Z,36.32
2022-10-13T05:59:14.425Z,36.33
2022-10-13T06:01:45.571Z,36.30
2022-10-13T06:04:15.934Z,36.58
2022-10-13T06:06:43.805Z,36.34
2022-10-13T06:09:11.706Z,36.66
2022-10-13T06:11:39.570Z,36.28
2022-10-13T06:14:07.555Z,36.38
2022-10-13T06:16:36.283Z,36.23
2022-10-13T06:19:05.706Z,36.32
2022-10-13T06:21:35.183Z,36.41
2022-10-13T06:24:03.069Z,36.59
2022-10-13T06:26:31.274Z,36.31
2022-10-13T06:28:59.950Z,36.07
2022-10-13T06:31:28.055Z,36.41
2022-10-13T06:33:55.998Z,36.44
2022-10-13T06:36:25.627Z,36.24
2022-10-13T06:38:53.531Z,36.34
2022-10-13T06:41:21.468Z,36.39
2022-10-13T06:43:49.356Z,36.45
2022-10-13T06:46:17.219Z,36.24
2022-10-13T06:48:45.086Z,36.63
2022-10-13T06:51:13.030Z,36.43
2022-10-13T06:53:42.635Z,36.40
2022-10-13T06:56:10.521Z,36.26
2022-10-13T06:58:38.404Z,36.36
2022-10-13T07:01:06.694Z,36.37
2022-10-13T07:03:34.707Z,36.47
2022-10-13T07:06:03.429Z,36.66
2022-10-13T07:08:31.275Z,36.43
2022-10-13T07:11:00.494Z,35.99
2022-10-13T07:13:30.363Z,36.46
2022-10-13T07:16:00.626Z,36.26
2022-10-13T07:18:28.473Z,36.37
2022-10-13T07:20:56.325Z,36.33
2022-10-13T07:23:24.232Z,36.24
2022-10-13T07:25:52.391Z,36.64
2022-10-13T07:28:21.662Z,36.39
2022-10-13T07:30:49.609Z,36.79
2022-10-13T07:33:17.431Z,36.31
2022-10-13T07:35:45.576Z,36.35
2022-10-13T07:38:13.525Z,36.45
2022-10-13T07:40:41.389Z,36.54
2022-10-13T07:43:09.297Z,36.39
2022-10-13T07:45:38.800Z,36.44
2022-10-13T07:48:07.004Z,36.49
2022-10-13T07:50:34.910Z,36.40
2022-10-13T07:53:02.820Z,36.49
2022-10-13T07:55:30.970Z,36.29
2022-10-13T07:57:58.842Z,36.28
2022-10-13T08:00:26.786Z,36.51
2022-10-13T08:02:56.042Z,36.39
2022-10-13T08:05:24.239Z,36.57
2022-10-13T08:07:54.702Z,36.38
2022-10-13T08:10:29.238Z,36.49
2022-10-13T08:12:57.121Z,36.40
2022-10-13T08:15:25.277Z,36.42
2022-10-13T08:17:53.125Z,36.23
2022-10-13T08:20:22.409Z,36.05
2022-10-13T08:22:50.304Z,36.72
2022-10-13T08:25:19.493Z,36.45
2022-10-13T08:27:51.675Z,36.49
2022-10-13T08:30:21.142Z,36.32
2022-10-13T08:32:49.166Z,36.44
2022-10-13T08:35:17.232Z,36.33
2022-10-13T08:37:46.491Z,36.34
2022-10-13T08:40:15.346Z,36.40
2022-10-13T08:42:44.403Z,36.15
2022-10-13T08:45:39.985Z,36.40
2022-10-13T08:48:06.679Z,36.43
2022-10-13T08:50:36.839Z,36.58
2022-10-13T08:53:07.051Z,36.53
2022-10-13T08:55:36.618Z,36.50
2022-10-13T08:58:07.440Z,36.29
2022-10-13T09:00:35.279Z,36.51
2022-10-13T09:03:15.684Z,36.31
2022-10-13T09:05:46.036Z,36.34
2022-10-13T09:08:17.528Z,36.47
2022-10-13T09:10:49.889Z,36.47
2022-10-13T09:13:17.792Z,36.51
2022-10-13T09:15:45.718Z,36.20
2022-10-13T09:18:13.958Z,36.22
2022-10-13T09:20:41.860Z,36.37
2022-10-13T09:23:22.179Z,36.64
2022-10-13T09:25:50.543Z,36.49
2022-10-13T09:28:20.737Z,36.51
2022-10-13T09:30:48.671Z,36.47
2022-10-13T09:33:25.159Z,36.54
2022-10-13T09:36:12.659Z,36.48
2022-10-13T09:38:43.131Z,36.45
2022-10-13T09:41:15.983Z,36.41
2022-10-13T09:43:44.471Z,36.55
2022-10-13T09:46:14.301Z,36.45
2022-10-13T09:48:46.034Z,36.45
2022-10-13T09:51:32.132Z,36.30
2022-10-13T09:54:01.441Z,36.27
2022-10-13T09:56:32.210Z,36.56
2022-10-13T09:59:03.449Z,36.40
2022-10-13T10:01:33.934Z,36.51
2022-10-13T10:04:02.478Z,36.69
2022-10-13T10:06:31.024Z,36.58
2022-10-13T10:09:04.285Z,36.59
2022-10-13T10:11:35.934Z,36.46
2022-10-13T10:14:11.471Z,36.27
2022-10-13T10:16:41.214Z,36.28
2022-10-13T10:19:13.336Z,36.74
2022-10-13T10:21:44.380Z,36.25
2022-10-13T10:24:18.444Z,36.50
2022-10-13T10:26:52.446Z,36.42
2022-10-13T10:29:24.688Z,36.69
2022-10-13T10:31:58.692Z,36.71
2022-10-13T10:34:33.783Z,36.39
2022-10-13T10:37:15.507Z,36.42
2022-10-13T10:39:47.870Z,36.47
2022-10-13T10:42:25.237Z,36.46
2022-10-13T10:44:53.120Z,36.63
2022-10-13T10:47:23.457Z,36.55
2022-10-13T10:49:51.865Z,36.37
2022-10-13T10:52:21.927Z,36.58
2022-10-13T10:54:51.775Z,36.67
2022-10-13T10:57:24.677Z,36.44
2022-10-13T10:59:57.644Z,36.57
2022-10-13T11:02:43.915Z,36.52
2022-10-13T11:05:11.950Z,36.28
2022-10-13T11:07:59.228Z,36.61
2022-10-13T11:10:28.497Z,36.24
2022-10-13T11:13:22.336Z,36.56
2022-10-13T11:15:50.487Z,36.67
2022-10-13T11:18:56.756Z,36.39
2022-10-13T11:21:24.609Z,36.65
2022-10-13T11:23:52.471Z,36.68
2022-10-13T11:26:29.108Z,36.82
2022-10-13T11:28:58.425Z,36.47
2022-10-13T11:31:33.741Z,36.55
2022-10-13T11:34:03.989Z,36.43
2022-10-13T11:36:50.974Z,36.73
2022-10-13T11:39:37.639Z,36.73
2022-10-13T11:42:10.579Z,36.85
2022-10-13T11:44:43.216Z,36.58
2022-10-13T11:47:16.545Z,36.66
2022-10-13T11:49:54.295Z,36.64
2022-10-13T11:52:36.454Z,36.64
2022-10-13T11:55:06.144Z,36.41
2022-10-13T11:57:34.016Z,36.64
2022-10-13T12:00:03.269Z,36.72
2022-10-13T12:02:31.172Z,36.65
2022-10-13T12:05:07.600Z,36.59
2022-10-13T12:07:36.483Z,36.59
2022-10-13T12:10:06.203Z,36.49
2022-10-13T12:12:34.143Z,36.44
2022-10-13T12:15:06.822Z,36.61
2022-10-13T12:17:38.846Z,36.70
2022-10-13T12:20:21.714Z,36.58
2022-10-13T12:22:49.732Z,36.75
2022-10-13T12:25:19.155Z,36.36
2022-10-13T12:27:47.960Z,36.79
2022-10-13T12:30:23.664Z,36.79
2022-10-13T12:32:51.830Z,36.65
2022-10-13T12:35:20.314Z,36.70
2022-10-13T12:37:48.392Z,36.84
2022-10-13T12:40:16.715Z,36.71
2022-10-13T12:42:44.560Z,36.92
2022-10-13T12:45:15.808Z,36.61
2022-10-13T12:47:50.148Z,36.60
2022-10-13T12:50:34.462Z,36.89
2022-10-13T12:53:11.775Z,36.69
2022-10-13T12:55:51.281Z,36.60
2022-10-13T12:58:24.445Z,36.68
2022-10-13T13:01:00.654Z,36.92
2022-10-13T13:03:30.329Z,36.78
2022-10-13T13:06:17.770Z,36.68
2022-10-13T13:08:45.648Z,36.88
2022-10-13T13:11:21.642Z,36.95
2022-10-13T13:13:49.452Z,36.72
2022-10-13T13:16:18.335Z,36.66
2022-10-13T13:18:47.754Z,36.76
2022-10-13T13:21:16.721Z,36.75
2022-10-13T13:23:51.014Z,36.64
2022-10-13T13:26:22.675Z,36.88
2022-10-13T13:28:51.299Z,36.77
2022-10-13T13:31:20.978Z,36.70
2022-10-13T13:33:50.282Z,36.79
2022-10-13T13:36:19.716Z,36.99
2022-10-13T13:38:47.618Z,36.77
2022-10-13T13:41:15.625Z,36.66
2022-10-13T13:43:43.616Z,36.93
2022-10-13T13:46:14.250Z,36.82
2022-10-13T13:48:42.133Z,36.64
2022-10-13T13:51:11.497Z,36.79
2022-10-13T13:53:39.334Z,36.92
2022-10-13T13:56:07.626Z,36.77
2022-10-13T13:58:35.487Z,37.12
2022-10-13T14:01:03.378Z,36.83
2022-10-13T14:03:31.391Z,36.82
2022-10-13T14:05:59.863Z,36.89
2022-10-13T14:08:31.311Z,36.89
2022-10-13T14:10:59.224Z,37.00
2022-10-13T14:13:27.170Z,36.86
2022-10-13T14:15:58.312Z,37.16
2022-10-13T14:18:26.232Z,36.83
2022-10-13T14:20:54.134Z,37.04
2022-10-13T14:23:21.997Z,37.01
2022-10-13T14:25:51.565Z,37.04
2022-10-13T14:28:19.494Z,36.90
2022-10-13T14:30:47.493Z,36.87
2022-10-13T14:33:19.274Z,36.96
2022-10-13T14:35:47.501Z,36.74
2022-10-13T14:38:15.361Z,37.02
2022-10-13T14:40:43.301Z,36.95
2022-10-13T14:43:12.590Z,37.05
2022-10-13T14:45:40.758Z,36.94
2022-10-13T14:48:08.689Z,37.24
2022-10-13T14:50:38.460Z,37.00
2022-10-13T14:53:09.607Z,37.08
2022-10-13T14:55:37.484Z,37.00
2022-10-13T14:58:05.436Z,37.15
2022-10-13T15:00:34.736Z,36.96
2022-10-13T15:03:03.145Z,36.96
2022-10-13T15:05:31.337Z,37.16
2022-10-13T15:07:59.358Z,37.19
2022-10-13T15:10:27.234Z,37.16
2022-10-13T15:12:55.089Z,36.99
2022-10-13T15:15:23.258Z,37.07
2022-10-13T15:17:52.498Z,36.98
2022-10-13T15:20:20.361Z,37.33
2022-10-13T15:22:48.361Z,36.95
2022-10-13T15:25:16.653Z,37.02
2022-10-13T15:27:44.622Z,37.11
2022-10-13T15:30:13.407Z,37.33
2022-10-13T15:32:41.340Z,37.16
2022-10-13T15:35:11.110Z,37.17
2022-10-13T15:37:39.030Z,37.20
2022-10-13T15:40:08.079Z,37.09
2022-10-13T15:42:36.024Z,37.09
2022-10-13T15:45:11.987Z,37.02
2022-10-13T15:47:40.050Z,37.50
2022-10-13T15:50:10.240Z,37.08
2022-10-13T15:52:41.478Z,37.06
2022-10-13T15:55:10.137Z,37.02
2022-10-13T15:57:38.074Z,37.18
2022-10-13T16:00:10.606Z,36.91
2022-10-13T16:02:38.478Z,37.16
2022-10-13T16:05:07.682Z,37.06
2022-10-13T16:07:37.049Z,37.19
2022-10-13T16:10:05.326Z,37.52
2022-10-13T16:12:33.289Z,37.37
2022-10-13T16:15:01.183Z,37.08
2022-10-13T16:17:29.047Z,37.16
2022-10-13T16:19:57.259Z,36.98
2022-10-13T16:22:25.323Z,37.11
2022-10-13T16:24:54.587Z,37.39
2022-10-13T16:27:23.961Z,37.38
2022-10-13T16:29:51.871Z,37.37
2022-10-13T16:32:19.866Z,37.49
2022-10-13T16:34:48.278Z,37.16
2022-10-13T16:37:16.193Z,37.55
2022-10-13T16:39:49.031Z,37.29
2022-10-13T16:42:20.906Z,37.27
2022-10-13T16:44:49.993Z,37.33
2022-10-13T16:47:18.741Z,36.90
2022-10-13T16:49:47.078Z,37.42
2022-10-13T16:52:14.941Z,37.27
2022-10-13T16:54:42.781Z,37.20
2022-10-13T16:57:12.019Z,37.45
2022-10-13T16:59:41.746Z,37.33
2022-10-13T17:02:14.173Z,37.57
2022-10-13T17:04:42.127Z,37.28
2022-10-13T17:07:10.283Z,37.41
2022-10-13T17:09:38.234Z,37.29
2022-10-13T17:12:06.508Z,37.64
2022-10-13T17:14:34.336Z,37.45
2022-10-13T17:17:04.278Z,37.72
2022-10-13T17:19:32.275Z,37.55
2022-10-13T17:22:00.140Z,37.56
2022-10-13T17:24:29.787Z,37.56
2022-10-13T17:26:57.979Z,37.64
2022-10-13T17:29:25.906Z,37.54
2022-10-13T17:31:54.203Z,37.43
2022-10-13T17:34:24.081Z,37.45
2022-10-13T17:36:52.533Z,37.44
2022-10-13T17:39:20.801Z,37.64
2022-10-13T17:41:48.942Z,37.77
2022-10-13T17:44:20.574Z,37.95
2022-10-13T17:46:49.059Z,37.91
2022-10-13T17:49:17.243Z,37.28
2022-10-13T17:51:46.643Z,37.29
2022-10-13T17:54:16.594Z,37.59
2022-10-13T17:56:45.177Z,37.59
2022-10-13T17:59:13.115Z,37.43
2022-10-13T18:01:42.689Z,37.37
2022-10-13T18:04:12.222Z,37.64
2022-10-13T18:06:41.137Z,37.46
2022-10-13T18:09:11.821Z,37.64
2022-10-13T18:11:39.868Z,37.44
2022-10-13T18:14:08.189Z,37.39
2022-10-13T18:16:36.578Z,37.80
2022-10-13T18:19:04.450Z,37.58
2022-10-13T18:21:32.366Z,37.42
2022-10-13T18:24:00.837Z,37.54
2022-10-13T18:26:34.861Z,37.49
2022-10-13T18:29:03.034Z,37.35
2022-10-13T18:31:31.712Z,37.36
2022-10-13T18:34:00.266Z,37.25
2022-10-13T18:36:29.371Z,37.51
2022-10-13T18:39:01.472Z,37.53
2022-10-13T18:41:30.811Z,37.25
2022-10-13T18:43:58.857Z,37.45
2022-10-13T18:46:26.726Z,37.42
2022-10-13T18:48:54.627Z,37.36
2022-10-13T18:51:23.618Z,37.52
2022-10-13T18:53:51.635Z,37.21
2022-10-13T18:56:20.325Z,37.61
2022-10-13T18:58:49.616Z,37.48
2022-10-13T19:01:18.603Z,37.51
2022-10-13T19:03:47.059Z,37.44
2022-10-13T19:06:16.279Z,37.58
2022-10-13T19:08:44.131Z,37.68
2022-10-13T19:11:13.203Z,37.39
2022-10-13T19:13:41.105Z,37.61
2022-10-13T19:16:11.119Z,37.55
2022-10-13T19:18:39.008Z,37.48
2022-10-13T19:21:07.184Z,37.46
2022-10-13T19:23:35.109Z,37.53
2022-10-13T19:26:11.140Z,37.73
2022-10-13T19:28:41.935Z,37.49
2022-10-13T19:31:11.612Z,37.42
2022-10-13T19:33:44.184Z,37.75
2022-10-13T19:36:13.535Z,37.49
2022-10-13T19:38:41.449Z,37.73
2022-10-13T19:41:09.386Z,37.60
2022-10-13T19:43:37.252Z,37.50
2022-10-13T19:46:06.949Z,37.63
2022-10-13T19:48:36.312Z,37.63
2022-10-13T19:51:05.963Z,37.60
2022-10-13T19:53:34.097Z,37.58
2022-10-13T19:56:02.310Z,37.71
2022-10-13T19:58:30.228Z,37.72
2022-10-13T20:01:02.379Z,37.52
2022-10-13T20:03:30.283Z,37.67
2022-10-13T20:05:59.814Z,37.86
2022-10-13T20:08:27.700Z,37.92
2022-10-13T20:10:55.572Z,37.74
2022-10-13T20:13:23.680Z,37.47
2022-10-13T20:15:51.893Z,37.57
2022-10-13T20:18:19.980Z,37.83
2022-10-13T20:20:48.001Z,37.95
2022-10-13T20:23:17.485Z,37.71
2022-10-13T20:25:46.429Z,37.57
2022-10-13T20:28:14.655Z,37.69
2022-10-13T20:30:43.165Z,37.75
2022-10-13T20:33:11.282Z,37.69
2022-10-13T20:35:39.470Z,37.69
2022-10-13T20:38:07.330Z,38.00
2022-10-13T20:40:36.669Z,37.53
2022-10-13T20:43:04.809Z,37.91
2022-10-13T20:45:33.048Z,38.02
2022-10-13T20:48:02.375Z,37.75
2022-10-13T20:50:30.376Z,37.55
2022-10-13T20:52:58.424Z,37.98
2022-10-13T20:55:26.896Z,37.78
2022-10-13T20:57:56.314Z,37.56
2022-10-13T21:00:24.256Z,38.02
2022-10-13T21:02:52.232Z,37.82
2022-10-13T21:05:20.650Z,37.71
2022-10-13T21:07:48.620Z,37.69
2022-10-13T21:10:16.777Z,37.83
2022-10-13T21:12:44.684Z,37.69
2022-10-13T21:15:14.565Z,37.95
2022-10-13T21:17:42.657Z,37.88
2022-10-13T21:20:11.628Z,37.65
2022-10-13T21:22:39.542Z,37.88
2022-10-13T21:25:08.686Z,38.06
2022-10-13T21:27:36.577Z,37.85
2022-10-13T21:30:05.032Z,37.75
2022-10-13T21:32:34.798Z,37.88
2022-10-13T21:35:02.755Z,37.96
2022-10-13T21:37:30.891Z,37.83
2022-10-13T21:39:58.849Z,38.04
2022-10-13T21:42:27.200Z,37.76
2022-10-13T21:44:55.183Z,37.73
2022-10-13T21:47:23.653Z,38.05
2022-10-13T21:49:54.289Z,37.96
2022-10-13T21:52:22.209Z,38.09
2022-10-13T21:54:50.897Z,37.93
2022-10-13T21:57:19.708Z,38.13
2022-10-13T21:59:48.079Z,37.88
2022-10-13T22:02:15.983Z,38.03
2022-10-13T22:04:44.085Z,37.82
2022-10-13T22:07:13.903Z,37.98
2022-10-13T22:09:42.116Z,37.88
2022-10-13T22:12:10.233Z,38.01
2022-10-13T22:14:38.428Z,37.97
2022-10-13T22:17:08.459Z,38.21
2022-10-13T22:19:36.799Z,38.15
2022-10-13T22:22:04.650Z,37.81
2022-10-13T22:24:33.975Z,37.65
2022-10-13T22:27:02.107Z,37.99
2022-10-13T22:29:30.608Z,37.92
2022-10-13T22:32:00.005Z,37.99
2022-10-13T22:34:28.300Z,37.81
2022-10-13T22:36:56.439Z,38.25
2022-10-13T22:39:24.530Z,37.68
2022-10-13T22:41:53.865Z,37.84
2022-10-13T22:44:21.745Z,37.91
2022-10-13T22:46:49.998Z,38.08
2022-10-13T22:49:17.962Z,37.62
2022-10-13T22:51:45.818Z,37.96
2022-10-13T22:54:13.726Z,37.94
2022-10-13T22:56:41.834Z,37.85
2022-10-13T22:59:12.282Z,38.05
2022-10-13T23:01:40.207Z,38.06
2022-10-13T23:04:08.178Z,37.92
2022-10-13T23:06:36.429Z,38.18
2022-10-13T23:09:05.211Z,37.99
2022-10-13T23:11:33.172Z,38.23
2022-10-13T23:14:01.804Z,38.10
2022-10-13T23:16:31.482Z,37.90
2022-10-13T23:18:59.333Z,38.18
2022-10-13T23:21:27.889Z,38.10
2022-10-13T23:23:56.832Z,38.07
2022-10-13T23:26:25.266Z,38.01
2022-10-13T23:28:53.794Z,38.06
2022-10-13T23:31:21.753Z,38.39
2022-10-13T23:33:51.474Z,37.98
2022-10-13T23:36:22.170Z,38.15
2022-10-13T23:38:50.114Z,38.11
2022-10-13T23:41:17.982Z,37.97
2022-10-13T23:43:45.894Z,38.12
2022-10-13T23:46:14.012Z,37.93
2022-10-13T23:48:42.088Z,38.21
2022-10-13T23:51:12.898Z,37.88
2022-10-13T23:53:40.788Z,38.05
2022-10-13T23:56:09.611Z,38.08
2022-10-13T23:58:37.716Z,38.05
